sensor_id;sensor_type;location;lat;lon;timestamp;pressure;altitude;pressure_sealevel;temperature;humidity
62708;BME280;48769;51.624;5.886;2023-02-25T00:00:01;100599.78;;;3.39;100.00
62708;BME280;48769;51.624;5.886;2023-02-25T00:02:35;100596.41;;;3.36;100.00
62708;BME280;48769;51.624;5.886;2023-02-25T00:05:01;100598.16;;;3.35;100.00
62708;BME280;48769;51.624;5.886;2023-02-25T00:07:31;100594.72;;;3.33;100.00
62708;BME280;48769;51.624;5.886;2023-02-25T00:09:56;100595.63;;;3.32;100.00
62708;BME280;48769;51.624;5.886;2023-02-25T00:12:21;100590.41;;;3.32;100.00
62708;BME280;48769;51.624;5.886;2023-02-25T00:14:47;100592.19;;;3.30;100.00
62708;BME280;48769;51.624;5.886;2023-02-25T00:17:12;100586.13;;;3.28;100.00
62708;BME280;48769;51.624;5.886;2023-02-25T00:19:37;100581.88;;;3.25;100.00
62708;BME280;48769;51.624;5.886;2023-02-25T00:22:03;100590.59;;;3.24;100.00
62708;BME280;48769;51.624;5.886;2023-02-25T00:24:29;100585.44;;;3.21;100.00
62708;BME280;48769;51.624;5.886;2023-02-25T00:26:54;100584.50;;;3.24;100.00
62708;BME280;48769;51.624;5.886;2023-02-25T00:29:20;100583.59;;;3.25;100.00
62708;BME280;48769;51.624;5.886;2023-02-25T00:31:46;100572.28;;;3.26;100.00
62708;BME280;48769;51.624;5.886;2023-02-25T00:34:11;100578.38;;;3.25;100.00
62708;BME280;48769;51.624;5.886;2023-02-25T00:36:37;100574.06;;;3.24;100.00
62708;BME280;48769;51.624;5.886;2023-02-25T00:39:03;100578.31;;;3.28;100.00
62708;BME280;48769;51.624;5.886;2023-02-25T00:41:29;100585.13;;;3.34;100.00
62708;BME280;48769;51.624;5.886;2023-02-25T00:43:57;100583.31;;;3.37;100.00
62708;BME280;48769;51.624;5.886;2023-02-25T00:46:24;100580.53;;;3.43;100.00
62708;BME280;48769;51.624;5.886;2023-02-25T00:48:49;100585.72;;;3.45;100.00
62708;BME280;48769;51.624;5.886;2023-02-25T00:51:20;100591.81;;;3.44;100.00
62708;BME280;48769;51.624;5.886;2023-02-25T00:53:46;100585.72;;;3.45;100.00
62708;BME280;48769;51.624;5.886;2023-02-25T00:56:14;100584.06;;;3.41;100.00
62708;BME280;48769;51.624;5.886;2023-02-25T00:58:40;100596.28;;;3.40;100.00
62708;BME280;48769;51.624;5.886;2023-02-25T01:01:19;100589.34;;;3.39;100.00
62708;BME280;48769;51.624;5.886;2023-02-25T01:03:46;100587.66;;;3.38;100.00
62708;BME280;48769;51.624;5.886;2023-02-25T01:06:12;100594.66;;;3.36;100.00
62708;BME280;48769;51.624;5.886;2023-02-25T01:08:37;100587.81;;;3.32;100.00
62708;BME280;48769;51.624;5.886;2023-02-25T01:11:33;100595.63;;;3.32;100.00
62708;BME280;48769;51.624;5.886;2023-02-25T01:14:04;100605.25;;;3.30;100.00
62708;BME280;48769;51.624;5.886;2023-02-25T01:16:32;100598.31;;;3.29;100.00
62708;BME280;48769;51.624;5.886;2023-02-25T01:19:00;100596.59;;;3.28;100.00
62708;BME280;48769;51.624;5.886;2023-02-25T01:21:29;100597.50;;;3.27;100.00
62708;BME280;48769;51.624;5.886;2023-02-25T01:24:02;100590.50;;;3.27;100.00
62708;BME280;48769;51.624;5.886;2023-02-25T01:26:30;100598.41;;;3.26;100.00
62708;BME280;48769;51.624;5.886;2023-02-25T01:28:56;100600.84;;;3.32;100.00
62708;BME280;48769;51.624;5.886;2023-02-25T01:31:23;100597.25;;;3.36;100.00
62708;BME280;48769;51.624;5.886;2023-02-25T01:33:57;100597.25;;;3.36;100.00
62708;BME280;48769;51.624;5.886;2023-02-25T01:36:23;100592.78;;;3.41;100.00
62708;BME280;48769;51.624;5.886;2023-02-25T01:38:48;100597.81;;;3.47;100.00
62708;BME280;48769;51.624;5.886;2023-02-25T01:41:14;100597.75;;;3.50;100.00
62708;BME280;48769;51.624;5.886;2023-02-25T01:43:40;100601.03;;;3.59;100.00
62708;BME280;48769;51.624;5.886;2023-02-25T01:46:05;100593.91;;;3.64;100.00
62708;BME280;48769;51.624;5.886;2023-02-25T01:48:34;100597.25;;;3.69;100.00
62708;BME280;48769;51.624;5.886;2023-02-25T01:51:03;100591.97;;;3.72;100.00
62708;BME280;48769;51.624;5.886;2023-02-25T01:53:39;100586.91;;;3.66;100.00
62708;BME280;48769;51.624;5.886;2023-02-25T01:56:09;100590.25;;;3.71;100.00
62708;BME280;48769;51.624;5.886;2023-02-25T01:58:36;100588.34;;;3.76;100.00
62708;BME280;48769;51.624;5.886;2023-02-25T02:01:03;100584.75;;;3.80;100.00
62708;BME280;48769;51.624;5.886;2023-02-25T02:03:33;100595.13;;;3.83;100.00
62708;BME280;48769;51.624;5.886;2023-02-25T02:08:24;100589.81;;;3.86;100.00
62708;BME280;48769;51.624;5.886;2023-02-25T02:10:50;100582.03;;;3.85;100.00
62708;BME280;48769;51.624;5.886;2023-02-25T02:13:16;100596.00;;;3.84;100.00
62708;BME280;48769;51.624;5.886;2023-02-25T02:15:52;100590.84;;;3.81;100.00
62708;BME280;48769;51.624;5.886;2023-02-25T02:18:20;100593.47;;;3.81;100.00
62708;BME280;48769;51.624;5.886;2023-02-25T02:21:10;100596.00;;;3.84;100.00
62708;BME280;48769;51.624;5.886;2023-02-25T02:26:42;100604.47;;;3.92;100.00
62708;BME280;48769;51.624;5.886;2023-02-25T02:32:27;100603.53;;;3.94;100.00
62708;BME280;48769;51.624;5.886;2023-02-25T02:35:14;100599.97;;;3.97;100.00
62708;BME280;48769;51.624;5.886;2023-02-25T02:42:59;100598.94;;;4.03;100.00
62708;BME280;48769;51.624;5.886;2023-02-25T02:48:09;100594.88;;;3.92;100.00
62708;BME280;48769;51.624;5.886;2023-02-25T02:50:40;100609.88;;;3.86;100.00
62708;BME280;48769;51.624;5.886;2023-02-25T02:53:12;100603.00;;;3.82;100.00
62708;BME280;48769;51.624;5.886;2023-02-25T02:55:49;100597.88;;;3.79;100.00
62708;BME280;48769;51.624;5.886;2023-02-25T03:00:43;100605.94;;;3.71;100.00
62708;BME280;48769;51.624;5.886;2023-02-25T03:03:24;100606.81;;;3.70;100.00
62708;BME280;48769;51.624;5.886;2023-02-25T03:06:01;100605.84;;;3.74;100.00
62708;BME280;48769;51.624;5.886;2023-02-25T03:08:29;100604.84;;;3.78;100.00
62708;BME280;48769;51.624;5.886;2023-02-25T03:10:56;100604.03;;;3.76;100.00
62708;BME280;48769;51.624;5.886;2023-02-25T03:13:21;100605.84;;;3.74;100.00
62708;BME280;48769;51.624;5.886;2023-02-25T03:15:48;100598.97;;;3.70;100.00
62708;BME280;48769;51.624;5.886;2023-02-25T03:18:30;100599.13;;;3.64;100.00
62708;BME280;48769;51.624;5.886;2023-02-25T03:20:57;100596.72;;;3.58;100.00
62708;BME280;48769;51.624;5.886;2023-02-25T03:23:30;100599.41;;;3.55;100.00
62708;BME280;48769;51.624;5.886;2023-02-25T03:26:13;100594.03;;;3.59;100.00
62708;BME280;48769;51.624;5.886;2023-02-25T03:28:43;100597.59;;;3.57;100.00
62708;BME280;48769;51.624;5.886;2023-02-25T03:31:33;100606.00;;;3.68;100.00
62708;BME280;48769;51.624;5.886;2023-02-25T03:34:17;100607.72;;;3.69;100.00
62708;BME280;48769;51.624;5.886;2023-02-25T03:36:48;100601.66;;;3.67;100.00
62708;BME280;48769;51.624;5.886;2023-02-25T03:39:20;100621.53;;;3.74;100.00
62708;BME280;48769;51.624;5.886;2023-02-25T03:41:51;100616.16;;;3.79;100.00
62708;BME280;48769;51.624;5.886;2023-02-25T03:44:24;100620.38;;;3.84;100.00
62708;BME280;48769;51.624;5.886;2023-02-25T03:46:52;100623.75;;;3.88;100.00
62708;BME280;48769;51.624;5.886;2023-02-25T03:49:24;100615.84;;;3.89;100.00
62708;BME280;48769;51.624;5.886;2023-02-25T03:51:50;100613.22;;;3.91;100.00
62708;BME280;48769;51.624;5.886;2023-02-25T03:54:18;100623.63;;;3.92;100.00
62708;BME280;48769;51.624;5.886;2023-02-25T03:56:48;100618.38;;;3.94;100.00
62708;BME280;48769;51.624;5.886;2023-02-25T03:59:14;100625.28;;;3.95;100.00
62708;BME280;48769;51.624;5.886;2023-02-25T04:01:42;100622.81;;;3.90;100.00
62708;BME280;48769;51.624;5.886;2023-02-25T04:04:09;100624.59;;;3.88;100.00
62708;BME280;48769;51.624;5.886;2023-02-25T04:06:36;100628.03;;;3.90;100.00
62708;BME280;48769;51.624;5.886;2023-02-25T04:09:02;100630.59;;;3.92;100.00
62708;BME280;48769;51.624;5.886;2023-02-25T04:11:29;100637.72;;;3.87;100.00
62708;BME280;48769;51.624;5.886;2023-02-25T04:13:54;100637.72;;;3.87;100.00
62708;BME280;48769;51.624;5.886;2023-02-25T04:16:19;100638.56;;;3.87;100.00
62708;BME280;48769;51.624;5.886;2023-02-25T04:18:45;100627.13;;;3.91;100.00
62708;BME280;48769;51.624;5.886;2023-02-25T04:21:32;100631.44;;;3.92;100.00
62708;BME280;48769;51.624;5.886;2023-02-25T04:23:59;100634.03;;;3.94;100.00
62708;BME280;48769;51.624;5.886;2023-02-25T04:26:25;100635.72;;;3.96;100.00
62708;BME280;48769;51.624;5.886;2023-02-25T04:28:51;100636.59;;;3.95;100.00
62708;BME280;48769;51.624;5.886;2023-02-25T04:31:16;100641.75;;;3.98;100.00
62708;BME280;48769;51.624;5.886;2023-02-25T04:33:42;100640.88;;;3.98;100.00
62708;BME280;48769;51.624;5.886;2023-02-25T04:38:54;100634.91;;;3.94;100.00
62708;BME280;48769;51.624;5.886;2023-02-25T04:41:21;100639.22;;;3.95;100.00
62708;BME280;48769;51.624;5.886;2023-02-25T04:43:46;100645.25;;;3.97;100.00
62708;BME280;48769;51.624;5.886;2023-02-25T04:46:12;100657.41;;;3.98;100.00
62708;BME280;48769;51.624;5.886;2023-02-25T04:48:37;100652.19;;;3.98;100.00
62708;BME280;48769;51.624;5.886;2023-02-25T04:51:04;100654.81;;;3.98;100.00
62708;BME280;48769;51.624;5.886;2023-02-25T04:53:30;100655.72;;;3.97;100.00
62708;BME280;48769;51.624;5.886;2023-02-25T04:55:55;100666.00;;;4.04;100.00
62708;BME280;48769;51.624;5.886;2023-02-25T04:58:21;100669.34;;;4.09;100.00
62708;BME280;48769;51.624;5.886;2023-02-25T05:00:47;100670.25;;;4.08;100.00
62708;BME280;48769;51.624;5.886;2023-02-25T05:03:12;100658.84;;;4.10;100.00
62708;BME280;48769;51.624;5.886;2023-02-25T05:05:38;100663.09;;;4.14;100.00
62708;BME280;48769;51.624;5.886;2023-02-25T05:08:03;100662.09;;;4.18;100.00
62708;BME280;48769;51.624;5.886;2023-02-25T05:10:29;100662.16;;;4.17;100.00
62708;BME280;48769;51.624;5.886;2023-02-25T05:12:54;100659.53;;;4.17;100.00
62708;BME280;48769;51.624;5.886;2023-02-25T05:15:20;100657.94;;;4.11;100.00
62708;BME280;48769;51.624;5.886;2023-02-25T05:17:45;100659.03;;;4.03;100.00
62708;BME280;48769;51.624;5.886;2023-02-25T05:20:12;100648.03;;;3.91;100.00
62708;BME280;48769;51.624;5.886;2023-02-25T05:22:37;100643.91;;;3.83;100.00
62708;BME280;48769;51.624;5.886;2023-02-25T05:25:04;100650.41;;;3.68;100.00
62708;BME280;48769;51.624;5.886;2023-02-25T05:27:31;100641.91;;;3.60;100.00
62708;BME280;48769;51.624;5.886;2023-02-25T05:29:56;100649.97;;;3.50;100.00
62708;BME280;48769;51.624;5.886;2023-02-25T05:32:21;100645.81;;;3.43;100.00
62708;BME280;48769;51.624;5.886;2023-02-25T05:34:47;100657.25;;;3.39;100.00
62708;BME280;48769;51.624;5.886;2023-02-25T05:37:12;100660.00;;;3.33;100.00
62708;BME280;48769;51.624;5.886;2023-02-25T05:39:37;100660.13;;;3.28;100.00
62708;BME280;48769;51.624;5.886;2023-02-25T05:42:03;100654.97;;;3.25;100.00
62708;BME280;48769;51.624;5.886;2023-02-25T05:44:28;100656.69;;;3.25;100.00
62708;BME280;48769;51.624;5.886;2023-02-25T05:46:55;100654.19;;;3.22;100.00
62708;BME280;48769;51.624;5.886;2023-02-25T05:49:21;100665.50;;;3.22;100.00
62708;BME280;48769;51.624;5.886;2023-02-25T05:51:48;100664.53;;;3.25;100.00
62708;BME280;48769;51.624;5.886;2023-02-25T05:54:14;100670.59;;;3.27;100.00
62708;BME280;48769;51.624;5.886;2023-02-25T05:56:39;100665.22;;;3.33;100.00
62708;BME280;48769;51.624;5.886;2023-02-25T05:59:05;100667.69;;;3.39;100.00
62708;BME280;48769;51.624;5.886;2023-02-25T06:01:30;100672.84;;;3.42;100.00
62708;BME280;48769;51.624;5.886;2023-02-25T06:03:56;100674.44;;;3.48;100.00
62708;BME280;48769;51.624;5.886;2023-02-25T06:06:23;100674.31;;;3.53;100.00
62708;BME280;48769;51.624;5.886;2023-02-25T06:08:50;100685.44;;;3.61;100.00
62708;BME280;48769;51.624;5.886;2023-02-25T06:11:22;100674.16;;;3.59;100.00
62708;BME280;48769;51.624;5.886;2023-02-25T06:13:49;100670.53;;;3.64;100.00
62708;BME280;48769;51.624;5.886;2023-02-25T06:16:15;100672.19;;;3.67;100.00
62708;BME280;48769;51.624;5.886;2023-02-25T06:18:40;100671.25;;;3.69;100.00
62708;BME280;48769;51.624;5.886;2023-02-25T06:21:08;100678.25;;;3.69;100.00
62708;BME280;48769;51.624;5.886;2023-02-25T06:23:35;100677.34;;;3.70;100.00
62708;BME280;48769;51.624;5.886;2023-02-25T06:26:01;100693.78;;;3.73;100.00
62708;BME280;48769;51.624;5.886;2023-02-25T06:28:27;100687.72;;;3.73;100.00
62708;BME280;48769;51.624;5.886;2023-02-25T06:30:52;100691.06;;;3.78;100.00
62708;BME280;48769;51.624;5.886;2023-02-25T06:33:17;100690.22;;;3.78;100.00
62708;BME280;48769;51.624;5.886;2023-02-25T06:35:43;100684.94;;;3.79;100.00
62708;BME280;48769;51.624;5.886;2023-02-25T06:38:08;100693.53;;;3.84;100.00
62708;BME280;48769;51.624;5.886;2023-02-25T06:40:34;100696.06;;;3.87;100.00
62708;BME280;48769;51.624;5.886;2023-02-25T06:42:59;100700.38;;;3.88;100.00
62708;BME280;48769;51.624;5.886;2023-02-25T06:45:24;100699.41;;;3.92;100.00
62708;BME280;48769;51.624;5.886;2023-02-25T06:47:50;100701.28;;;3.87;100.00
62708;BME280;48769;51.624;5.886;2023-02-25T06:50:16;100705.56;;;3.90;100.00
62708;BME280;48769;51.624;5.886;2023-02-25T06:52:41;100705.66;;;3.87;100.00
62708;BME280;48769;51.624;5.886;2023-02-25T06:55:08;100705.69;;;3.85;100.00
62708;BME280;48769;51.624;5.886;2023-02-25T06:57:34;100711.78;;;3.86;100.00
62708;BME280;48769;51.624;5.886;2023-02-25T07:00:00;100722.28;;;3.84;100.00
62708;BME280;48769;51.624;5.886;2023-02-25T07:02:25;100717.06;;;3.84;100.00
62708;BME280;48769;51.624;5.886;2023-02-25T07:04:54;100727.28;;;3.92;100.00
62708;BME280;48769;51.624;5.886;2023-02-25T07:07:20;100727.06;;;4.01;100.00
62708;BME280;48769;51.624;5.886;2023-02-25T07:09:46;100724.97;;;4.14;100.00
62708;BME280;48769;51.624;5.886;2023-02-25T07:12:11;100732.69;;;4.18;100.00
62708;BME280;48769;51.624;5.886;2023-02-25T07:14:37;100740.44;;;4.23;100.00
62708;BME280;48769;51.624;5.886;2023-02-25T07:17:03;100728.97;;;4.27;100.00
62708;BME280;48769;51.624;5.886;2023-02-25T07:19:29;100734.34;;;4.22;100.00
62708;BME280;48769;51.624;5.886;2023-02-25T07:21:54;100743.22;;;4.15;100.00
62708;BME280;48769;51.624;5.886;2023-02-25T07:24:19;100735.53;;;4.09;100.00
62708;BME280;48769;51.624;5.886;2023-02-25T07:26:45;100740.91;;;4.05;100.00
62708;BME280;48769;51.624;5.886;2023-02-25T07:29:11;100733.84;;;4.08;100.00
62708;BME280;48769;51.624;5.886;2023-02-25T07:31:38;100747.44;;;4.21;100.00
62708;BME280;48769;51.624;5.886;2023-02-25T07:34:04;100755.91;;;4.31;100.00
62708;BME280;48769;51.624;5.886;2023-02-25T07:36:31;100753.38;;;4.59;100.00
62708;BME280;48769;51.624;5.886;2023-02-25T07:38:58;100752.56;;;4.86;100.00
62708;BME280;48769;51.624;5.886;2023-02-25T07:41:24;100761.31;;;5.15;100.00
62708;BME280;48769;51.624;5.886;2023-02-25T07:43:49;100769.88;;;5.48;100.00
62708;BME280;48769;51.624;5.886;2023-02-25T07:46:15;100769.38;;;5.09;100.00
62708;BME280;48769;51.624;5.886;2023-02-25T07:48:40;100768.44;;;4.82;100.00
62708;BME280;48769;51.624;5.886;2023-02-25T07:51:18;100762.44;;;4.78;100.00
62708;BME280;48769;51.624;5.886;2023-02-25T07:53:45;100765.91;;;4.79;100.00
62708;BME280;48769;51.624;5.886;2023-02-25T07:56:11;100761.44;;;4.82;100.00
62708;BME280;48769;51.624;5.886;2023-02-25T07:58:37;100764.91;;;4.83;100.00
62708;BME280;48769;51.624;5.886;2023-02-25T08:01:12;100768.38;;;4.83;100.00
62708;BME280;48769;51.624;5.886;2023-02-25T08:03:42;100769.22;;;4.84;100.00
62708;BME280;48769;51.624;5.886;2023-02-25T08:06:07;100779.75;;;4.82;100.00
62708;BME280;48769;51.624;5.886;2023-02-25T08:08:36;100784.84;;;4.87;100.00
62708;BME280;48769;51.624;5.886;2023-02-25T08:11:06;100777.75;;;4.90;100.00
62708;BME280;48769;51.624;5.886;2023-02-25T08:13:32;100776.59;;;5.01;100.00
62708;BME280;48769;51.624;5.886;2023-02-25T08:15:57;100776.31;;;5.10;100.00
62708;BME280;48769;51.624;5.886;2023-02-25T08:18:23;100774.41;;;5.15;100.00
62708;BME280;48769;51.624;5.886;2023-02-25T08:20:48;100779.22;;;5.29;100.00
62708;BME280;48769;51.624;5.886;2023-02-25T08:23:13;100780.25;;;5.53;100.00
62708;BME280;48769;51.624;5.886;2023-02-25T08:25:39;100783.28;;;6.45;100.00
62708;BME280;48769;51.624;5.886;2023-02-25T08:28:05;100777.66;;;7.48;100.00
62708;BME280;48769;51.624;5.886;2023-02-25T08:30:30;100779.09;;;7.34;100.00
62708;BME280;48769;51.624;5.886;2023-02-25T08:32:56;100781.22;;;7.24;100.00
62708;BME280;48769;51.624;5.886;2023-02-25T08:35:22;100777.19;;;6.92;100.00
62708;BME280;48769;51.624;5.886;2023-02-25T08:37:50;100788.19;;;6.79;100.00
62708;BME280;48769;51.624;5.886;2023-02-25T08:40:16;100794.78;;;6.66;100.00
62708;BME280;48769;51.624;5.886;2023-02-25T08:42:42;100788.03;;;6.59;100.00
62708;BME280;48769;51.624;5.886;2023-02-25T08:45:08;100792.22;;;6.65;100.00
62708;BME280;48769;51.624;5.886;2023-02-25T08:47:34;100799.47;;;6.82;100.00
62708;BME280;48769;51.624;5.886;2023-02-25T08:49:59;100803.75;;;6.84;100.00
62708;BME280;48769;51.624;5.886;2023-02-25T08:52:25;100802.44;;;6.72;100.00
62708;BME280;48769;51.624;5.886;2023-02-25T08:54:51;100803.88;;;6.56;100.00
62708;BME280;48769;51.624;5.886;2023-02-25T08:57:16;100802.47;;;6.47;100.00
62708;BME280;48769;51.624;5.886;2023-02-25T08:59:41;100796.56;;;6.41;100.00
62708;BME280;48769;51.624;5.886;2023-02-25T09:02:10;100798.75;;;6.53;100.00
62708;BME280;48769;51.624;5.886;2023-02-25T09:04:39;100806.19;;;6.89;100.00
62708;BME280;48769;51.624;5.886;2023-02-25T09:07:05;100799.59;;;8.12;100.00
62708;BME280;48769;51.624;5.886;2023-02-25T09:09:30;100788.34;;;9.28;100.00
62708;BME280;48769;51.624;5.886;2023-02-25T09:11:58;100792.06;;;11.15;100.00
62708;BME280;48769;51.624;5.886;2023-02-25T09:14:24;100779.75;;;12.23;100.00
62708;BME280;48769;51.624;5.886;2023-02-25T09:16:49;100786.94;;;11.43;100.00
62708;BME280;48769;51.624;5.886;2023-02-25T09:19:14;100800.44;;;10.74;100.00
62708;BME280;48769;51.624;5.886;2023-02-25T09:21:42;100809.19;;;9.88;100.00
62708;BME280;48769;51.624;5.886;2023-02-25T09:24:08;100808.22;;;9.35;100.00
62708;BME280;48769;51.624;5.886;2023-02-25T09:26:33;100820.81;;;8.91;100.00
62708;BME280;48769;51.624;5.886;2023-02-25T09:29:00;100822.34;;;8.76;100.00
62708;BME280;48769;51.624;5.886;2023-02-25T09:31:25;100830.25;;;8.55;100.00
62708;BME280;48769;51.624;5.886;2023-02-25T09:33:51;100839.63;;;8.42;100.00
62708;BME280;48769;51.624;5.886;2023-02-25T09:36:18;100833.63;;;8.16;100.00
62708;BME280;48769;51.624;5.886;2023-02-25T09:38:45;100829.97;;;7.99;100.00
62708;BME280;48769;51.624;5.886;2023-02-25T09:44:23;100834.41;;;7.54;100.00
62708;BME280;48769;51.624;5.886;2023-02-25T09:47:00;100846.06;;;7.23;100.00
62708;BME280;48769;51.624;5.886;2023-02-25T09:52:20;100878.34;;;6.78;100.00
62708;BME280;48769;51.624;5.886;2023-02-25T09:57:51;100892.03;;;6.10;100.00
62708;BME280;48769;51.624;5.886;2023-02-25T10:00:19;100894.06;;;6.02;100.00
62708;BME280;48769;51.624;5.886;2023-02-25T10:03:16;100892.31;;;6.01;100.00
62708;BME280;48769;51.624;5.886;2023-02-25T10:05:55;100897.28;;;6.10;100.00
62708;BME280;48769;51.624;5.886;2023-02-25T10:08:31;100897.03;;;6.18;100.00
62708;BME280;48769;51.624;5.886;2023-02-25T10:13:38;100895.88;;;6.26;100.00
62708;BME280;48769;51.624;5.886;2023-02-25T10:19:07;100897.63;;;6.52;100.00
62708;BME280;48769;51.624;5.886;2023-02-25T10:22:06;100896.03;;;6.73;100.00
62708;BME280;48769;51.624;5.886;2023-02-25T10:24:42;100912.75;;;6.96;100.00
62708;BME280;48769;51.624;5.886;2023-02-25T10:29:55;100919.19;;;7.36;100.00
62708;BME280;48769;51.624;5.886;2023-02-25T10:32:25;100920.19;;;7.79;100.00
62708;BME280;48769;51.624;5.886;2023-02-25T10:34:53;100918.41;;;7.57;100.00
62708;BME280;48769;51.624;5.886;2023-02-25T10:37:30;100914.00;;;7.80;100.00
62708;BME280;48769;51.624;5.886;2023-02-25T10:39:58;100932.94;;;8.11;100.00
62708;BME280;48769;51.624;5.886;2023-02-25T10:42:25;100936.09;;;8.43;100.00
62708;BME280;48769;51.624;5.886;2023-02-25T10:44:51;100924.56;;;8.46;100.00
62708;BME280;48769;51.624;5.886;2023-02-25T10:47:28;100935.84;;;8.70;100.00
62708;BME280;48769;51.624;5.886;2023-02-25T10:53:01;100991.41;;;6.47;100.00
62708;BME280;48769;51.624;5.886;2023-02-25T10:55:49;100943.38;;;5.88;100.00
62708;BME280;48769;51.624;5.886;2023-02-25T10:58:44;100933.41;;;5.72;100.00
62708;BME280;48769;51.624;5.886;2023-02-25T11:01:16;100933.09;;;5.81;100.00
62708;BME280;48769;51.624;5.886;2023-02-25T11:06:28;100938.13;;;6.17;100.00
62708;BME280;48769;51.624;5.886;2023-02-25T11:08:54;100948.56;;;6.47;100.00
62708;BME280;48769;51.624;5.886;2023-02-25T11:16:30;100916.88;;;9.60;100.00
62708;BME280;48769;51.624;5.886;2023-02-25T11:18:59;100911.47;;;9.64;100.00
62708;BME280;48769;51.624;5.886;2023-02-25T11:21:31;100921.22;;;9.03;100.00
62708;BME280;48769;51.624;5.886;2023-02-25T11:24:00;100919.78;;;8.55;100.00
62708;BME280;48769;51.624;5.886;2023-02-25T11:26:30;100928.84;;;8.48;100.00
62708;BME280;48769;51.624;5.886;2023-02-25T11:29:03;100927.13;;;8.25;100.00
62708;BME280;48769;51.624;5.886;2023-02-25T11:31:35;100941.19;;;8.02;100.00
62708;BME280;48769;51.624;5.886;2023-02-25T11:34:06;100950.19;;;7.73;100.00
62708;BME280;48769;51.624;5.886;2023-02-25T11:36:37;100981.56;;;7.31;100.00
62708;BME280;48769;51.624;5.886;2023-02-25T11:39:16;101008.59;;;6.56;100.00
62708;BME280;48769;51.624;5.886;2023-02-25T11:41:47;100999.72;;;6.05;100.00
62708;BME280;48769;51.624;5.886;2023-02-25T11:46:58;100972.19;;;5.89;100.00
62708;BME280;48769;51.624;5.886;2023-02-25T11:57:17;100963.06;;;7.34;100.00
62708;BME280;48769;51.624;5.886;2023-02-25T12:05:23;100949.41;;;8.16;100.00
62708;BME280;48769;51.624;5.886;2023-02-25T12:22:01;100919.16;;;12.24;100.00
62708;BME280;48769;51.624;5.886;2023-02-25T12:28:05;100915.22;;;12.31;80.00
62708;BME280;48769;51.624;5.886;2023-02-25T12:30:35;100912.03;;;10.79;82.59
62708;BME280;48769;51.624;5.886;2023-02-25T12:35:56;100896.97;;;12.11;73.63
62708;BME280;48769;51.624;5.886;2023-02-25T12:41:46;100893.38;;;12.58;72.55
62708;BME280;48769;51.624;5.886;2023-02-25T12:47:28;100893.84;;;11.39;72.64
62708;BME280;48769;51.624;5.886;2023-02-25T12:54:49;100891.31;;;9.04;70.31
62708;BME280;48769;51.624;5.886;2023-02-25T13:02:11;100857.38;;;13.27;48.24
62708;BME280;48769;51.624;5.886;2023-02-25T13:18:42;100909.53;;;10.41;47.70
62708;BME280;48769;51.624;5.886;2023-02-25T13:32:40;100914.94;;;11.08;45.18
62708;BME280;48769;51.624;5.886;2023-02-25T13:35:17;100916.22;;;11.50;46.13
62708;BME280;48769;51.624;5.886;2023-02-25T13:37:58;100924.31;;;10.63;45.46
62708;BME280;48769;51.624;5.886;2023-02-25T13:40:44;100920.53;;;10.32;44.92
62708;BME280;48769;51.624;5.886;2023-02-25T13:51:42;100947.22;;;10.45;47.66
62708;BME280;48769;51.624;5.886;2023-02-25T14:02:39;100961.94;;;9.56;48.57
62708;BME280;48769;51.624;5.886;2023-02-25T14:05:57;100959.41;;;9.34;49.29
62708;BME280;48769;51.624;5.886;2023-02-25T14:08:38;100959.47;;;9.32;48.94
62708;BME280;48769;51.624;5.886;2023-02-25T14:14:11;100952.75;;;9.25;47.74
62708;BME280;48769;51.624;5.886;2023-02-25T14:19:31;100962.22;;;9.10;48.38
62708;BME280;48769;51.624;5.886;2023-02-25T14:22:22;100967.75;;;8.84;48.48
62708;BME280;48769;51.624;5.886;2023-02-25T14:25:17;100981.03;;;8.38;47.74
62708;BME280;48769;51.624;5.886;2023-02-25T14:27:53;100985.25;;;7.97;46.81
62708;BME280;48769;51.624;5.886;2023-02-25T14:30:51;100983.00;;;7.86;46.22
62708;BME280;48769;51.624;5.886;2023-02-25T14:33:39;100994.88;;;7.75;47.08
62708;BME280;48769;51.624;5.886;2023-02-25T14:39:27;100998.25;;;8.24;46.62
62708;BME280;48769;51.624;5.886;2023-02-25T14:45:24;101007.66;;;8.07;46.73
62708;BME280;48769;51.624;5.886;2023-02-25T14:48:14;101012.09;;;8.29;46.59
62708;BME280;48769;51.624;5.886;2023-02-25T14:50:51;101009.50;;;8.27;46.06
62708;BME280;48769;51.624;5.886;2023-02-25T14:53:33;101028.59;;;8.10;46.63
62708;BME280;48769;51.624;5.886;2023-02-25T14:56:15;101020.59;;;7.90;45.38
62708;BME280;48769;51.624;5.886;2023-02-25T15:02:14;101016.34;;;7.86;43.80
62708;BME280;48769;51.624;5.886;2023-02-25T15:08:32;101025.69;;;7.94;45.81
62708;BME280;48769;51.624;5.886;2023-02-25T15:11:15;101018.63;;;7.95;44.00
62708;BME280;48769;51.624;5.886;2023-02-25T15:13:50;101031.13;;;7.90;45.15
62708;BME280;48769;51.624;5.886;2023-02-25T15:16:33;101022.19;;;7.70;42.05
62708;BME280;48769;51.624;5.886;2023-02-25T15:19:24;101027.94;;;7.57;43.37
62708;BME280;48769;51.624;5.886;2023-02-25T15:25:49;101037.19;;;7.43;43.49
62708;BME280;48769;51.624;5.886;2023-02-25T15:35:56;101056.38;;;7.20;45.25
62708;BME280;48769;51.624;5.886;2023-02-25T15:49:14;101074.13;;;6.59;43.76
62708;BME280;48769;51.624;5.886;2023-02-25T15:51:44;101078.13;;;6.43;44.14
62708;BME280;48769;51.624;5.886;2023-02-25T15:57:03;101089.63;;;6.39;46.17
62708;BME280;48769;51.624;5.886;2023-02-25T15:59:53;101087.97;;;6.36;45.96
62708;BME280;48769;51.624;5.886;2023-02-25T16:04:52;101103.03;;;6.29;47.28
62708;BME280;48769;51.624;5.886;2023-02-25T16:07:20;101109.22;;;6.27;48.23
62708;BME280;48769;51.624;5.886;2023-02-25T16:09:58;101116.22;;;6.28;48.77
62708;BME280;48769;51.624;5.886;2023-02-25T16:12:25;101124.19;;;6.23;48.97
62708;BME280;48769;51.624;5.886;2023-02-25T16:14:52;101122.56;;;6.19;49.30